createdAt,value
2023-02-08T00:00:55.809Z,2.42
2023-02-08T00:03:22.760Z,2.33
2023-02-08T00:05:50.019Z,2.38
2023-02-08T00:08:17.407Z,2.36
2023-02-08T00:10:44.538Z,2.33
2023-02-08T00:13:11.439Z,2.32
2023-02-08T00:15:43.204Z,2.25
2023-02-08T00:18:10.110Z,2.30
2023-02-08T00:20:40.825Z,2.29
2023-02-08T00:23:08.321Z,2.27
2023-02-08T00:25:35.842Z,2.19
2023-02-08T00:28:04.639Z,2.23
2023-02-08T00:30:32.614Z,2.20
2023-02-08T00:33:01.289Z,2.19
2023-02-08T00:35:29.022Z,2.19
2023-02-08T00:37:56.794Z,2.17
2023-02-08T00:40:24.895Z,2.14
2023-02-08T00:42:51.831Z,2.10
2023-02-08T00:45:18.834Z,2.00
2023-02-08T00:47:45.747Z,2.04
2023-02-08T00:50:12.670Z,2.01
2023-02-08T00:52:39.776Z,2.02
2023-02-08T00:55:07.488Z,2.04
2023-02-08T00:57:34.802Z,2.04
2023-02-08T01:00:02.425Z,2.04
2023-02-08T01:02:29.401Z,2.02
2023-02-08T01:04:56.338Z,2.01
2023-02-08T01:07:23.268Z,1.99
2023-02-08T01:09:50.194Z,2.01
2023-02-08T01:12:17.150Z,1.99
2023-02-08T01:14:44.112Z,1.99
2023-02-08T01:17:11.012Z,1.95
2023-02-08T01:19:37.986Z,1.92
2023-02-08T01:22:04.970Z,1.88
2023-02-08T01:24:32.588Z,1.85
2023-02-08T01:26:59.487Z,1.82
2023-02-08T01:29:26.371Z,1.80
2023-02-08T01:31:53.325Z,1.77
2023-02-08T01:34:20.966Z,1.73
2023-02-08T01:36:47.926Z,1.73
2023-02-08T01:39:14.837Z,1.72
2023-02-08T01:41:46.530Z,1.67
2023-02-08T01:44:14.850Z,1.66
2023-02-08T01:46:44.876Z,1.64
2023-02-08T01:49:28.002Z,1.62
2023-02-08T01:52:14.932Z,1.59
2023-02-08T01:54:59.239Z,1.57
2023-02-08T01:57:27.697Z,1.55
2023-02-08T02:00:18.526Z,1.54
2023-02-08T02:02:47.886Z,1.55
2023-02-08T02:05:17.508Z,1.53
2023-02-08T02:07:44.724Z,1.54
2023-02-08T02:10:32.204Z,1.53
2023-02-08T02:13:14.422Z,1.51
2023-02-08T02:15:45.265Z,1.48
2023-02-08T02:18:24.002Z,1.46
2023-02-08T02:21:33.281Z,1.44
2023-02-08T02:24:36.455Z,1.40
2023-02-08T02:27:19.959Z,1.36
2023-02-08T02:30:14.049Z,1.35
2023-02-08T02:33:25.225Z,1.32
2023-02-08T02:36:37.571Z,1.30
2023-02-08T02:39:45.402Z,1.27
2023-02-08T02:42:41.798Z,1.25
2023-02-08T02:45:26.975Z,1.21
2023-02-08T02:48:14.322Z,1.20
2023-02-08T02:50:48.606Z,1.19
2023-02-08T02:53:42.090Z,1.19
2023-02-08T02:56:22.487Z,1.16
2023-02-08T02:58:51.004Z,1.17
2023-02-08T03:01:30.076Z,1.13
2023-02-08T03:03:57.579Z,1.16
2023-02-08T03:06:40.594Z,1.13
2023-02-08T03:09:35.079Z,1.11
2023-02-08T03:12:45.240Z,1.07
2023-02-08T03:15:38.866Z,1.06
2023-02-08T03:18:49.903Z,1.04
2023-02-08T03:21:40.596Z,1.01
2023-02-08T03:24:52.233Z,0.99
2023-02-08T03:27:42.580Z,0.97
2023-02-08T03:30:16.614Z,0.91
2023-02-08T03:32:50.348Z,0.95
2023-02-08T03:35:26.628Z,0.88
2023-02-08T03:38:00.579Z,0.92
2023-02-08T03:40:33.022Z,0.92
2023-02-08T03:43:07.580Z,0.90
2023-02-08T03:45:45.584Z,0.90
2023-02-08T03:48:17.003Z,0.89
2023-02-08T03:50:49.654Z,0.85
2023-02-08T03:53:21.789Z,0.79
2023-02-08T03:55:54.830Z,0.84
2023-02-08T03:58:34.371Z,0.85
2023-02-08T04:01:15.706Z,0.84
2023-02-08T04:03:45.198Z,0.82
2023-02-08T04:06:12.615Z,0.83
2023-02-08T04:08:39.522Z,0.81
2023-02-08T04:11:06.402Z,0.79
2023-02-08T04:13:33.318Z,0.77
2023-02-08T04:16:00.378Z,0.76
2023-02-08T04:18:27.333Z,0.75
2023-02-08T04:20:54.215Z,0.71
2023-02-08T04:23:21.145Z,0.73
2023-02-08T04:25:48.023Z,0.71
2023-02-08T04:28:14.969Z,0.70
2023-02-08T04:30:42.130Z,0.70
2023-02-08T04:33:09.244Z,0.69
2023-02-08T04:35:36.134Z,0.67
2023-02-08T04:38:03.031Z,0.67
2023-02-08T04:40:31.073Z,0.67
2023-02-08T04:42:58.043Z,0.64
2023-02-08T04:45:26.997Z,0.64
2023-02-08T04:47:54.011Z,0.64
2023-02-08T04:50:21.038Z,0.49
2023-02-08T04:52:47.922Z,0.61
2023-02-08T04:55:14.803Z,0.61
2023-02-08T04:57:41.685Z,0.61
2023-02-08T05:00:09.470Z,0.61
2023-02-08T05:02:36.343Z,0.60
2023-02-08T05:05:03.495Z,0.61
2023-02-08T05:07:30.615Z,0.60
2023-02-08T05:09:57.531Z,0.59
2023-02-08T05:12:24.410Z,0.59
2023-02-08T05:14:51.343Z,0.59
2023-02-08T05:17:18.192Z,0.58
2023-02-08T05:19:45.079Z,0.57
2023-02-08T05:22:11.934Z,0.55
2023-02-08T05:24:38.811Z,0.55
2023-02-08T05:27:05.671Z,0.53
2023-02-08T05:29:32.571Z,0.49
2023-02-08T05:31:59.486Z,0.52
2023-02-08T05:34:26.386Z,0.52
2023-02-08T05:36:53.272Z,0.53
2023-02-08T05:39:20.258Z,0.53
2023-02-08T05:41:47.128Z,0.52
2023-02-08T05:44:14.016Z,0.52
2023-02-08T05:46:40.951Z,0.51
2023-02-08T05:49:08.217Z,0.48
2023-02-08T05:51:35.114Z,0.47
2023-02-08T05:54:02.030Z,0.48
2023-02-08T05:56:29.667Z,0.47
2023-02-08T05:58:56.558Z,0.47
2023-02-08T06:01:23.517Z,0.46
2023-02-08T06:03:50.410Z,0.43
2023-02-08T06:06:17.299Z,0.40
2023-02-08T06:08:44.226Z,0.39
2023-02-08T06:11:11.112Z,0.31
2023-02-08T06:13:39.049Z,0.39
2023-02-08T06:16:06.987Z,0.39
2023-02-08T06:18:33.874Z,0.39
2023-02-08T06:21:00.730Z,0.40
2023-02-08T06:23:27.630Z,0.40
2023-02-08T06:25:54.527Z,0.39
2023-02-08T06:28:21.481Z,0.40
2023-02-08T06:30:52.335Z,0.40
2023-02-08T06:33:19.870Z,0.39
2023-02-08T06:35:48.202Z,0.38
2023-02-08T06:38:15.224Z,0.32
2023-02-08T06:40:42.526Z,0.36
2023-02-08T06:43:09.652Z,0.38
2023-02-08T06:45:36.596Z,0.38
2023-02-08T06:48:03.861Z,0.39
2023-02-08T06:50:31.110Z,0.39
2023-02-08T06:52:58.102Z,0.38
2023-02-08T06:55:25.039Z,0.33
2023-02-08T06:57:55.851Z,0.38
2023-02-08T07:00:22.905Z,0.38
2023-02-08T07:02:49.794Z,0.40
2023-02-08T07:05:16.819Z,0.43
2023-02-08T07:07:43.840Z,0.46
2023-02-08T07:10:10.731Z,0.47
2023-02-08T07:12:38.423Z,0.49
2023-02-08T07:15:05.590Z,0.51
2023-02-08T07:17:32.469Z,0.51
2023-02-08T07:19:59.349Z,0.54
2023-02-08T07:22:26.245Z,0.57
2023-02-08T07:24:53.189Z,0.59
2023-02-08T07:27:20.080Z,0.60
2023-02-08T07:29:47.009Z,0.70
2023-02-08T07:32:14.013Z,0.74
2023-02-08T07:34:40.958Z,0.79
2023-02-08T07:37:08.461Z,0.74
2023-02-08T07:39:35.345Z,0.88
2023-02-08T07:42:02.286Z,0.85
2023-02-08T07:44:37.102Z,0.99
2023-02-08T07:47:05.330Z,1.02
2023-02-08T07:49:33.318Z,1.13
2023-02-08T07:52:01.828Z,1.19
2023-02-08T07:54:29.543Z,1.25
2023-02-08T07:56:57.090Z,1.32
2023-02-08T07:59:24.182Z,1.36
2023-02-08T08:01:51.067Z,1.35
2023-02-08T08:04:19.726Z,1.51
2023-02-08T08:06:46.893Z,1.58
2023-02-08T08:09:15.338Z,1.65
2023-02-08T08:11:42.200Z,1.76
2023-02-08T08:14:09.078Z,1.83
2023-02-08T08:16:36.003Z,1.92
2023-02-08T08:19:02.955Z,1.98
2023-02-08T08:21:29.831Z,2.06
2023-02-08T08:23:56.722Z,2.13
2023-02-08T08:26:23.627Z,2.20
2023-02-08T08:28:50.568Z,2.25
2023-02-08T08:31:20.961Z,2.32
2023-02-08T08:33:48.379Z,2.40
2023-02-08T08:36:15.962Z,2.46
2023-02-08T08:38:42.847Z,2.53
2023-02-08T08:41:17.873Z,2.60
2023-02-08T08:43:45.497Z,2.64
2023-02-08T08:46:12.481Z,2.75
2023-02-08T08:48:39.431Z,2.83
2023-02-08T08:51:07.131Z,2.88
2023-02-08T08:53:34.635Z,2.99
2023-02-08T08:56:01.693Z,3.07
2023-02-08T08:58:29.186Z,3.12
2023-02-08T09:01:00.436Z,3.22
2023-02-08T09:03:28.784Z,3.29
2023-02-08T09:05:56.248Z,3.36
2023-02-08T09:08:23.261Z,3.41
2023-02-08T09:10:50.162Z,3.40
2023-02-08T09:13:20.096Z,3.51
2023-02-08T09:15:48.333Z,3.55
2023-02-08T09:18:15.307Z,3.58
2023-02-08T09:20:42.567Z,3.62
2023-02-08T09:23:09.657Z,3.66
2023-02-08T09:25:37.477Z,3.72
2023-02-08T09:28:05.058Z,3.80
2023-02-08T09:30:32.827Z,3.75
2023-02-08T09:32:59.893Z,3.94
2023-02-08T09:35:26.798Z,4.00
2023-02-08T09:37:55.774Z,4.05
2023-02-08T09:40:26.479Z,4.06
2023-02-08T09:43:22.915Z,4.15
2023-02-08T09:46:18.660Z,4.19
2023-02-08T09:48:46.322Z,4.22
2023-02-08T09:51:32.867Z,4.22
2023-02-08T09:54:23.876Z,4.28
2023-02-08T09:56:52.669Z,4.24
2023-02-08T09:59:40.961Z,4.33
2023-02-08T10:02:31.219Z,4.35
2023-02-08T10:05:11.792Z,4.41
2023-02-08T10:07:41.148Z,4.46
2023-02-08T10:10:18.954Z,4.53
2023-02-08T10:13:40.833Z,4.58
2023-02-08T10:16:19.036Z,4.65
2023-02-08T10:19:10.238Z,4.71
2023-02-08T10:22:13.322Z,4.75
2023-02-08T10:25:17.428Z,4.80
2023-02-08T10:28:11.723Z,4.85
2023-02-08T10:31:28.808Z,4.90
2023-02-08T10:34:05.468Z,4.97
2023-02-08T10:36:41.824Z,5.02
2023-02-08T10:39:24.715Z,5.05
2023-02-08T10:41:51.783Z,5.16
2023-02-08T10:44:42.448Z,5.24
2023-02-08T10:47:22.358Z,5.24
2023-02-08T10:49:59.276Z,5.38
2023-02-08T10:52:26.249Z,5.41
2023-02-08T10:54:54.525Z,5.46
2023-02-08T10:57:26.164Z,5.49
2023-02-08T11:00:19.639Z,5.51
2023-02-08T11:02:47.241Z,5.53
2023-02-08T11:05:36.008Z,5.52
2023-02-08T11:08:19.790Z,5.53
2023-02-08T11:11:04.322Z,5.53
2023-02-08T11:13:41.839Z,5.52
2023-02-08T11:16:13.617Z,5.55
2023-02-08T11:18:49.204Z,5.53
2023-02-08T11:21:36.490Z,5.58
2023-02-08T11:25:14.598Z,5.59
2023-02-08T11:27:49.311Z,5.59
2023-02-08T11:30:23.272Z,5.63
2023-02-08T11:33:16.482Z,5.63
2023-02-08T11:35:45.076Z,5.67
2023-02-08T11:38:19.682Z,5.67
2023-02-08T11:40:46.688Z,5.74
2023-02-08T11:43:30.307Z,5.71
2023-02-08T11:45:59.616Z,5.75
2023-02-08T11:48:39.509Z,5.83
2023-02-08T11:51:06.958Z,5.88
2023-02-08T11:53:39.653Z,5.87
2023-02-08T11:56:24.793Z,5.84
2023-02-08T11:59:04.966Z,5.92
2023-02-08T12:01:38.756Z,5.98
2023-02-08T12:04:13.168Z,6.05
2023-02-08T12:07:01.329Z,6.08
2023-02-08T12:10:06.599Z,6.10
2023-02-08T12:13:13.505Z,6.11
2023-02-08T12:16:11.966Z,6.14
2023-02-08T12:19:01.285Z,6.17
2023-02-08T12:21:45.456Z,6.18
2023-02-08T12:24:25.642Z,6.25
2023-02-08T12:27:31.069Z,6.30
2023-02-08T12:30:36.144Z,6.34
2023-02-08T12:33:56.335Z,6.40
2023-02-08T12:37:12.822Z,6.43
2023-02-08T12:40:17.970Z,6.47
2023-02-08T12:43:03.545Z,6.45
2023-02-08T12:45:45.445Z,6.55
2023-02-08T12:48:52.251Z,6.56
2023-02-08T12:51:42.713Z,6.64
2023-02-08T12:54:30.784Z,6.70
2023-02-08T12:57:02.376Z,6.76
2023-02-08T12:59:49.906Z,6.79
2023-02-08T13:02:24.576Z,6.82
2023-02-08T13:04:59.485Z,6.75
2023-02-08T13:07:32.426Z,6.89
2023-02-08T13:10:35.799Z,6.86
2023-02-08T13:13:27.213Z,6.89
2023-02-08T13:16:10.626Z,6.84
2023-02-08T13:18:49.034Z,6.86
2023-02-08T13:21:23.078Z,6.86
2023-02-08T13:23:53.167Z,6.87
2023-02-08T13:26:28.244Z,6.90
2023-02-08T13:29:01.064Z,6.88
2023-02-08T13:31:41.169Z,6.86
2023-02-08T13:34:57.136Z,6.83
2023-02-08T13:37:31.293Z,6.83
2023-02-08T13:40:07.292Z,6.86
2023-02-08T13:42:42.742Z,6.88
2023-02-08T13:45:22.851Z,6.90
2023-02-08T13:47:59.724Z,6.91
2023-02-08T13:50:51.138Z,7.00
2023-02-08T13:53:38.625Z,7.00
2023-02-08T13:56:10.403Z,6.99
2023-02-08T13:58:46.129Z,6.98
2023-02-08T14:01:35.690Z,6.86
2023-02-08T14:04:17.724Z,6.99
2023-02-08T14:06:55.902Z,6.95
2023-02-08T14:09:44.137Z,6.99
2023-02-08T14:12:39.132Z,7.04
2023-02-08T14:15:14.841Z,7.05
2023-02-08T14:17:48.828Z,7.07
2023-02-08T14:20:40.575Z,7.03
2023-02-08T14:23:27.677Z,7.10
2023-02-08T14:25:57.575Z,7.07
2023-02-08T14:28:41.561Z,7.09
2023-02-08T14:31:11.788Z,7.09
2023-02-08T14:33:49.419Z,7.09
2023-02-08T14:36:30.935Z,7.05
2023-02-08T14:39:29.175Z,7.02
2023-02-08T14:42:05.307Z,6.98
2023-02-08T14:44:38.000Z,6.93
2023-02-08T14:47:36.938Z,6.86
2023-02-08T14:50:16.756Z,6.83
2023-02-08T14:53:13.258Z,6.76
2023-02-08T14:56:09.979Z,6.75
2023-02-08T14:58:43.517Z,6.72
2023-02-08T15:01:32.818Z,6.69
2023-02-08T15:04:02.347Z,6.67
2023-02-08T15:06:38.728Z,6.66
2023-02-08T15:09:27.392Z,6.63
2023-02-08T15:12:26.767Z,6.61
2023-02-08T15:14:58.439Z,6.63
2023-02-08T15:17:44.459Z,6.56
2023-02-08T15:20:25.146Z,6.56
2023-02-08T15:23:23.323Z,6.53
2023-02-08T15:26:03.410Z,6.51
2023-02-08T15:28:34.387Z,6.49
2023-02-08T15:31:11.436Z,6.46
2023-02-08T15:33:40.242Z,6.44
2023-02-08T15:36:15.770Z,6.33
2023-02-08T15:38:44.922Z,6.41
2023-02-08T15:41:24.537Z,6.40
2023-02-08T15:43:51.547Z,6.38
2023-02-08T15:46:25.897Z,6.33
2023-02-08T15:48:53.808Z,6.32
2023-02-08T15:51:23.165Z,6.28
2023-02-08T15:53:54.052Z,6.24
2023-02-08T15:56:38.051Z,6.21
2023-02-08T15:59:14.737Z,6.18
2023-02-08T16:01:46.559Z,6.09
2023-02-08T16:04:13.511Z,6.09
2023-02-08T16:06:55.017Z,6.08
2023-02-08T16:09:29.765Z,6.04
2023-02-08T16:12:00.733Z,6.00
2023-02-08T16:14:30.281Z,5.93
2023-02-08T16:16:58.652Z,5.92
2023-02-08T16:19:29.554Z,5.88
2023-02-08T16:22:12.586Z,5.83
2023-02-08T16:24:39.603Z,5.79
2023-02-08T16:27:20.555Z,5.74
2023-02-08T16:29:48.256Z,5.69
2023-02-08T16:32:36.033Z,5.63
2023-02-08T16:35:24.843Z,5.52
2023-02-08T16:38:00.734Z,5.52
2023-02-08T16:40:52.405Z,5.47
2023-02-08T16:43:28.786Z,5.43
2023-02-08T16:46:21.229Z,5.31
2023-02-08T16:48:58.005Z,5.34
2023-02-08T16:51:27.184Z,5.31
2023-02-08T16:54:00.734Z,5.27
2023-02-08T16:56:27.664Z,5.25
2023-02-08T16:58:54.528Z,5.20
2023-02-08T17:01:24.295Z,5.17
2023-02-08T17:03:52.884Z,5.14
2023-02-08T17:06:32.959Z,5.09
2023-02-08T17:09:02.364Z,5.05
2023-02-08T17:11:29.504Z,4.99
2023-02-08T17:13:58.324Z,4.95
2023-02-08T17:16:28.745Z,4.88
2023-02-08T17:18:56.757Z,4.87
2023-02-08T17:21:23.832Z,4.82
2023-02-08T17:23:50.897Z,4.81
2023-02-08T17:26:23.009Z,4.79
2023-02-08T17:28:50.395Z,4.75
2023-02-08T17:31:17.474Z,4.75
2023-02-08T17:33:44.506Z,4.71
2023-02-08T17:36:14.565Z,4.68
2023-02-08T17:38:43.666Z,4.65
2023-02-08T17:41:15.942Z,4.60
2023-02-08T17:43:42.884Z,4.57
2023-02-08T17:46:17.405Z,4.54
2023-02-08T17:48:46.688Z,4.51
2023-02-08T17:51:19.077Z,4.48
2023-02-08T17:53:46.413Z,4.47
2023-02-08T17:56:18.023Z,4.44
2023-02-08T17:58:45.381Z,4.41
2023-02-08T18:01:17.479Z,4.37
2023-02-08T18:03:45.807Z,4.33
2023-02-08T18:06:13.716Z,4.30
2023-02-08T18:08:41.421Z,4.24
2023-02-08T18:11:17.808Z,4.17
2023-02-08T18:13:46.074Z,4.22
2023-02-08T18:16:17.121Z,4.19
2023-02-08T18:18:44.930Z,4.18
2023-02-08T18:21:18.512Z,4.15
2023-02-08T18:23:46.589Z,4.10
2023-02-08T18:26:22.793Z,4.03
2023-02-08T18:28:51.678Z,4.13
2023-02-08T18:31:20.316Z,4.07
2023-02-08T18:33:48.762Z,4.00
2023-02-08T18:36:16.818Z,4.00
2023-02-08T18:38:46.322Z,3.95
2023-02-08T18:41:23.000Z,3.92
2023-02-08T18:43:51.137Z,3.88
2023-02-08T18:46:21.454Z,3.84
2023-02-08T18:48:50.473Z,3.76
2023-02-08T18:51:19.861Z,3.74
2023-02-08T18:53:53.108Z,3.76
2023-02-08T18:56:23.975Z,3.74
2023-02-08T18:58:52.962Z,3.72
2023-02-08T19:01:23.435Z,3.70
2023-02-08T19:03:51.725Z,3.66
2023-02-08T19:06:24.390Z,3.64
2023-02-08T19:08:54.368Z,3.62
2023-02-08T19:11:26.227Z,3.61
2023-02-08T19:13:56.025Z,3.58
2023-02-08T19:16:24.615Z,3.56
2023-02-08T19:18:53.182Z,3.54
2023-02-08T19:21:20.398Z,3.51
2023-02-08T19:23:51.792Z,3.37
2023-02-08T19:26:29.155Z,3.45
2023-02-08T19:28:59.282Z,3.44
2023-02-08T19:31:27.908Z,3.38
2023-02-08T19:33:58.707Z,3.40
2023-02-08T19:36:32.056Z,3.37
2023-02-08T19:39:00.417Z,3.35
2023-02-08T19:41:35.147Z,3.34
2023-02-08T19:44:05.430Z,3.22
2023-02-08T19:46:35.004Z,3.24
2023-02-08T19:49:02.403Z,3.23
2023-02-08T19:51:32.219Z,3.28
2023-02-08T19:54:00.848Z,3.25
2023-02-08T19:56:33.787Z,3.25
2023-02-08T19:59:09.384Z,3.24
2023-02-08T20:01:36.447Z,3.24
2023-02-08T20:04:05.818Z,3.18
2023-02-08T20:06:37.142Z,3.23
2023-02-08T20:09:04.672Z,3.23
2023-02-08T20:11:37.128Z,3.22
2023-02-08T20:14:07.003Z,3.22
2023-02-08T20:16:34.496Z,3.20
2023-02-08T20:19:02.527Z,3.20
2023-02-08T20:21:29.777Z,3.15
2023-02-08T20:23:56.691Z,3.17
2023-02-08T20:26:27.174Z,3.11
2023-02-08T20:28:58.454Z,3.14
2023-02-08T20:31:33.313Z,3.13
2023-02-08T20:34:04.309Z,3.12
2023-02-08T20:36:38.475Z,3.13
2023-02-08T20:39:05.532Z,3.13
2023-02-08T20:41:33.943Z,3.11
2023-02-08T20:44:01.029Z,3.08
2023-02-08T20:46:34.448Z,3.08
2023-02-08T20:49:04.252Z,3.05
2023-02-08T20:51:32.310Z,3.03
2023-02-08T20:54:01.109Z,3.01
2023-02-08T20:56:34.704Z,3.00
2023-02-08T20:59:06.566Z,2.97
2023-02-08T21:01:35.133Z,2.88
2023-02-08T21:04:03.210Z,2.95
2023-02-08T21:06:36.638Z,2.92
2023-02-08T21:09:12.375Z,2.90
2023-02-08T21:11:39.864Z,2.90
2023-02-08T21:14:08.173Z,2.87
2023-02-08T21:16:35.163Z,2.85
2023-02-08T21:19:02.081Z,2.85
2023-02-08T21:21:29.002Z,2.84
2023-02-08T21:23:57.806Z,2.77
2023-02-08T21:26:25.943Z,2.80
2023-02-08T21:28:55.103Z,2.81
2023-02-08T21:31:23.785Z,2.80
2023-02-08T21:33:51.306Z,2.79
2023-02-08T21:36:22.477Z,2.75
2023-02-08T21:38:49.677Z,2.76
2023-02-08T21:41:26.177Z,2.75
2023-02-08T21:43:56.019Z,2.75
2023-02-08T21:46:27.727Z,2.74
2023-02-08T21:49:14.704Z,2.69
2023-02-08T21:52:01.006Z,2.72
2023-02-08T21:54:46.660Z,2.69
2023-02-08T21:57:23.318Z,2.67
2023-02-08T21:59:54.529Z,2.66
2023-02-08T22:02:29.914Z,2.66
2023-02-08T22:05:17.783Z,2.64
2023-02-08T22:07:57.414Z,2.64
2023-02-08T22:10:28.350Z,2.63
2023-02-08T22:12:57.227Z,2.58
2023-02-08T22:15:30.037Z,2.62
2023-02-08T22:18:00.284Z,2.60
2023-02-08T22:20:28.142Z,2.60
2023-02-08T22:22:55.525Z,2.59
2023-02-08T22:25:23.510Z,2.59
2023-02-08T22:27:50.480Z,2.59
2023-02-08T22:30:19.317Z,2.59
2023-02-08T22:32:48.991Z,2.58
2023-02-08T22:35:17.737Z,2.58
2023-02-08T22:37:44.813Z,2.56
2023-02-08T22:40:12.795Z,2.55
2023-02-08T22:42:41.281Z,2.54
2023-02-08T22:45:09.010Z,2.54
2023-02-08T22:47:36.415Z,2.49
2023-02-08T22:50:04.977Z,2.49
2023-02-08T22:52:34.329Z,2.53
2023-02-08T22:55:03.994Z,2.53
2023-02-08T22:57:33.658Z,2.50
2023-02-08T23:00:00.915Z,2.45
2023-02-08T23:02:27.900Z,2.47
2023-02-08T23:04:54.930Z,2.46
2023-02-08T23:07:22.009Z,2.43
2023-02-08T23:09:48.868Z,2.46
2023-02-08T23:12:15.765Z,2.38
2023-02-08T23:14:42.632Z,2.44
2023-02-08T23:17:09.538Z,2.41
2023-02-08T23:19:36.406Z,2.42
2023-02-08T23:22:03.344Z,2.40
2023-02-08T23:24:30.205Z,2.38
2023-02-08T23:26:57.069Z,2.38
2023-02-08T23:29:24.089Z,2.36
2023-02-08T23:31:51.055Z,2.35
2023-02-08T23:34:18.494Z,2.35
2023-02-08T23:36:46.719Z,2.34
2023-02-08T23:39:13.626Z,2.31
2023-02-08T23:41:40.544Z,2.28
2023-02-08T23:44:07.510Z,2.29
2023-02-08T23:46:34.496Z,2.28
2023-02-08T23:49:01.547Z,2.27
2023-02-08T23:51:28.573Z,2.19
2023-02-08T23:53:55.570Z,2.24
2023-02-08T23:56:31.861Z,2.23
2023-02-08T23:58:59.950Z,2.22
